Time;durP1;ratioP1;P1;durP2;ratioP2;P2;SDS_P1;SDS_P2;PMS_P1;PMS_P2;Temp;Humidity;BMP_temperature;BMP_pressure;BME280_temperature;BME280_humidity;BME280_pressure;Samples;Min_cycle;Max_cycle;Signal;HPM_P1;HPM_P2
2022/08/08 00:00:58;;;;;;;2.73;2.50;;;;;;;;;;5072729;28;20476;-47
2022/08/08 00:03:40;;;;;;;3.30;3.10;;;;;;;;;;5073690;28;20388;-48
2022/08/08 00:06:15;;;;;;;3.03;2.70;;;;;;;;;;5073521;28;20401;-47
2022/08/08 00:08:48;;;;;;;2.80;2.50;;;;;;;;;;5062303;28;20440;-48
2022/08/08 00:11:14;;;;;;;3.60;2.87;;;;;;;;;;5072726;28;20369;-47
2022/08/08 00:13:40;;;;;;;4.63;2.97;;;;;;;;;;5072000;28;20437;-48
2022/08/08 00:16:08;;;;;;;3.07;2.87;;;;;;;;;;5053634;28;20437;-48
2022/08/08 00:18:34;;;;;;;3.10;2.63;;;;;;;;;;5053119;28;20871;-48
2022/08/08 00:21:01;;;;;;;3.00;2.77;;;;;;;;;;5052698;28;20780;-48
2022/08/08 00:23:27;;;;;;;3.10;2.90;;;;;;;;;;5053096;28;20454;-48
2022/08/08 00:25:55;;;;;;;2.87;2.63;;;;;;;;;;5052896;28;20405;-47
2022/08/08 00:28:27;;;;;;;3.30;2.93;;;;;;;;;;5052999;28;20474;-47
2022/08/08 00:30:54;;;;;;;2.97;2.77;;;;;;;;;;5052223;28;20381;-48
2022/08/08 00:33:23;;;;;;;3.27;2.97;;;;;;;;;;5052889;28;20427;-48
2022/08/08 00:36:15;;;;;;;2.97;2.70;;;;;;;;;;5052859;28;20386;-48
2022/08/08 00:38:46;;;;;;;4.43;3.10;;;;;;;;;;5050762;28;20417;-47
2022/08/08 00:41:30;;;;;;;4.57;3.37;;;;;;;;;;5052167;28;20490;-48
2022/08/08 00:44:19;;;;;;;3.07;2.50;;;;;;;;;;5052185;28;20401;-48
2022/08/08 00:46:51;;;;;;;2.93;2.70;;;;;;;;;;5072427;28;20464;-48
2022/08/08 00:49:36;;;;;;;2.87;2.63;;;;;;;;;;5072512;28;20964;-47
2022/08/08 00:52:07;;;;;;;6.93;3.10;;;;;;;;;;5072122;28;21125;-47
2022/08/08 00:54:52;;;;;;;4.20;3.47;;;;;;;;;;5071539;28;20403;-48
2022/08/08 00:57:39;;;;;;;3.30;3.03;;;;;;;;;;5071754;28;20434;-48
2022/08/08 01:00:16;;;;;;;3.30;3.07;;;;;;;;;;5071864;28;20425;-48
2022/08/08 01:02:57;;;;;;;4.07;2.63;;;;;;;;;;5071286;28;20459;-48
2022/08/08 01:05:35;;;;;;;6.03;3.10;;;;;;;;;;5071825;28;20469;-48
2022/08/08 01:08:16;;;;;;;3.07;2.83;;;;;;;;;;5072082;28;20872;-48
2022/08/08 01:10:54;;;;;;;3.00;2.80;;;;;;;;;;5071426;28;20376;-48
2022/08/08 01:13:20;;;;;;;3.63;3.20;;;;;;;;;;5072271;28;20429;-48
2022/08/08 01:15:52;;;;;;;3.73;3.33;;;;;;;;;;5060868;28;20434;-48
2022/08/08 01:18:18;;;;;;;2.90;2.70;;;;;;;;;;5051703;28;20410;-48
2022/08/08 01:21:06;;;;;;;3.40;3.10;;;;;;;;;;5051389;28;20412;-47
2022/08/08 01:23:50;;;;;;;6.50;3.10;;;;;;;;;;5052114;28;20728;-47
2022/08/08 01:26:48;;;;;;;3.77;3.40;;;;;;;;;;5051838;28;20424;-48
2022/08/08 01:29:20;;;;;;;3.57;3.30;;;;;;;;;;5028351;28;20476;-49
2022/08/08 01:32:07;;;;;;;4.53;3.67;;;;;;;;;;5051240;28;20376;-47
2022/08/08 01:34:44;;;;;;;3.50;3.20;;;;;;;;;;5051550;28;20391;-47
2022/08/08 01:37:10;;;;;;;3.27;3.07;;;;;;;;;;5051694;28;20525;-48
2022/08/08 01:39:55;;;;;;;3.50;2.90;;;;;;;;;;5051714;28;20870;-48
2022/08/08 01:42:39;;;;;;;3.87;3.57;;;;;;;;;;5051862;28;20379;-48
2022/08/08 01:45:14;;;;;;;4.10;3.47;;;;;;;;;;5051109;28;20430;-47
2022/08/08 01:47:59;;;;;;;12.23;4.53;;;;;;;;;;5071378;28;20428;-48
2022/08/08 01:50:52;;;;;;;5.43;3.70;;;;;;;;;;5071091;28;20453;-48
2022/08/08 01:53:38;;;;;;;3.73;3.43;;;;;;;;;;5071644;28;20732;-47
2022/08/08 01:56:14;;;;;;;3.27;3.07;;;;;;;;;;5071554;28;20798;-48
2022/08/08 01:58:44;;;;;;;4.27;3.60;;;;;;;;;;5071793;28;20409;-47
2022/08/08 02:01:28;;;;;;;5.00;3.00;;;;;;;;;;5071609;28;20375;-47
2022/08/08 02:03:57;;;;;;;3.43;3.13;;;;;;;;;;5072047;28;20458;-48
2022/08/08 02:06:26;;;;;;;4.50;3.87;;;;;;;;;;5071566;28;20424;-47
2022/08/08 02:09:05;;;;;;;4.60;3.63;;;;;;;;;;5072845;28;20455;-47
2022/08/08 02:11:41;;;;;;;3.90;3.60;;;;;;;;;;5075027;28;20402;-47
2022/08/08 02:14:16;;;;;;;5.23;3.47;;;;;;;;;;5075538;28;20397;-47
2022/08/08 02:16:51;;;;;;;5.47;3.50;;;;;;;;;;5066014;28;20419;-48
2022/08/08 02:19:25;;;;;;;3.70;3.40;;;;;;;;;;5055365;28;20927;-47
2022/08/08 02:24:54;;;;;;;3.80;3.50;;;;;;;;;;5055437;28;20812;-47
2022/08/08 02:27:23;;;;;;;5.83;4.00;;;;;;;;;;5055286;28;20952;-48
2022/08/08 02:30:04;;;;;;;4.97;3.47;;;;;;;;;;5054415;28;20514;-49
2022/08/08 02:32:55;;;;;;;5.70;3.50;;;;;;;;;;5055240;28;20401;-48
2022/08/08 02:35:33;;;;;;;4.00;3.60;;;;;;;;;;5055208;28;20539;-48
2022/08/08 02:38:15;;;;;;;4.40;4.10;;;;;;;;;;5055129;28;20396;-48
2022/08/08 02:40:59;;;;;;;4.47;4.07;;;;;;;;;;5054278;28;20433;-47
2022/08/08 02:43:44;;;;;;;12.00;4.00;;;;;;;;;;5054998;28;20486;-47
2022/08/08 02:46:25;;;;;;;5.00;3.77;;;;;;;;;;5065235;28;20455;-47
2022/08/08 02:48:57;;;;;;;5.67;4.40;;;;;;;;;;5074762;28;20452;-47
2022/08/08 02:51:23;;;;;;;6.57;3.77;;;;;;;;;;5074242;28;20916;-48
2022/08/08 02:53:52;;;;;;;4.47;4.07;;;;;;;;;;5075199;28;20396;-48
2022/08/08 02:56:36;;;;;;;4.17;3.77;;;;;;;;;;5074764;28;20402;-47
2022/08/08 02:59:21;;;;;;;4.17;3.77;;;;;;;;;;5074735;28;20407;-48
2022/08/08 03:02:05;;;;;;;4.10;3.40;;;;;;;;;;5074061;28;20473;-48
2022/08/08 03:04:37;;;;;;;5.27;3.90;;;;;;;;;;5074837;28;20406;-48
2022/08/08 03:07:15;;;;;;;4.27;3.87;;;;;;;;;;5074480;28;20408;-48
2022/08/08 03:09:47;;;;;;;4.70;4.17;;;;;;;;;;5074101;28;20502;-47
2022/08/08 03:12:32;;;;;;;5.90;4.10;;;;;;;;;;5074556;28;20411;-48
2022/08/08 03:15:17;;;;;;;4.50;3.90;;;;;;;;;;5074607;28;20434;-47
2022/08/08 03:18:06;;;;;;;3.97;3.60;;;;;;;;;;5059604;28;20447;-48
2022/08/08 03:20:49;;;;;;;4.20;3.80;;;;;;;;;;5070190;28;20382;-48
2022/08/08 03:23:16;;;;;;;4.77;4.37;;;;;;;;;;5074676;28;20396;-48
2022/08/08 03:25:44;;;;;;;4.80;4.40;;;;;;;;;;5074246;28;20404;-47
2022/08/08 03:28:15;;;;;;;4.80;3.90;;;;;;;;;;5074074;28;20494;-48
2022/08/08 03:30:44;;;;;;;5.50;4.57;;;;;;;;;;5073499;28;20837;-48
2022/08/08 03:33:17;;;;;;;8.50;4.10;;;;;;;;;;5074134;28;20827;-48
2022/08/08 03:35:43;;;;;;;5.17;4.67;;;;;;;;;;5074037;28;20383;-47
2022/08/08 03:38:09;;;;;;;5.63;3.53;;;;;;;;;;5074018;28;20445;-48
2022/08/08 03:40:35;;;;;;;4.47;4.07;;;;;;;;;;5073329;28;20401;-48
2022/08/08 03:43:01;;;;;;;5.70;4.37;;;;;;;;;;5073882;28;20895;-48
2022/08/08 03:45:28;;;;;;;6.60;3.97;;;;;;;;;;5072483;28;20434;-48
2022/08/08 03:48:01;;;;;;;4.87;4.43;;;;;;;;;;5073594;28;20485;-48
2022/08/08 03:50:28;;;;;;;4.40;4.03;;;;;;;;;;5073120;28;20719;-48
2022/08/08 03:52:54;;;;;;;6.43;4.80;;;;;;;;;;5073757;28;20783;-49
2022/08/08 03:55:21;;;;;;;5.67;4.40;;;;;;;;;;5073708;28;20412;-48
2022/08/08 03:57:48;;;;;;;5.73;3.80;;;;;;;;;;5073427;28;20520;-48
2022/08/08 04:00:15;;;;;;;4.40;4.00;;;;;;;;;;5072908;28;20398;-48
2022/08/08 04:02:42;;;;;;;5.13;4.37;;;;;;;;;;5073517;28;20484;-48
2022/08/08 04:05:08;;;;;;;5.60;4.90;;;;;;;;;;5073489;28;20434;-48
2022/08/08 04:07:38;;;;;;;5.00;4.33;;;;;;;;;;5073299;28;20462;-48
2022/08/08 04:10:05;;;;;;;6.00;5.50;;;;;;;;;;5072772;28;20825;-48
2022/08/08 04:12:31;;;;;;;6.30;5.00;;;;;;;;;;5073353;28;20412;-48
2022/08/08 04:14:57;;;;;;;6.57;5.40;;;;;;;;;;5071482;28;20772;-48
2022/08/08 04:17:23;;;;;;;7.00;5.50;;;;;;;;;;5054483;28;20449;-48
2022/08/08 04:19:49;;;;;;;5.70;4.43;;;;;;;;;;5052538;28;20414;-47
2022/08/08 04:22:15;;;;;;;7.10;5.30;;;;;;;;;;5053353;28;20501;-48
2022/08/08 04:24:41;;;;;;;6.23;5.20;;;;;;;;;;5053219;28;20494;-47
2022/08/08 04:27:07;;;;;;;10.60;5.50;;;;;;;;;;5052977;28;20937;-49
2022/08/08 04:29:33;;;;;;;5.33;4.60;;;;;;;;;;5052678;28;20558;-47
2022/08/08 04:31:59;;;;;;;6.53;5.10;;;;;;;;;;5051726;28;20671;-49
2022/08/08 04:34:25;;;;;;;5.93;5.33;;;;;;;;;;5052902;28;20820;-47
2022/08/08 04:36:51;;;;;;;6.03;4.73;;;;;;;;;;5052990;28;20422;-48
2022/08/08 04:39:17;;;;;;;6.40;4.97;;;;;;;;;;5052791;28;20544;-47
2022/08/08 04:41:43;;;;;;;6.80;5.03;;;;;;;;;;5052137;28;20415;-48
2022/08/08 04:44:09;;;;;;;6.70;5.63;;;;;;;;;;5052645;28;20410;-48
2022/08/08 04:46:35;;;;;;;6.00;5.10;;;;;;;;;;5052869;28;20958;-48
2022/08/08 04:49:01;;;;;;;5.43;4.90;;;;;;;;;;5072461;28;20457;-48
2022/08/08 04:51:27;;;;;;;5.00;4.50;;;;;;;;;;5071958;28;20504;-49
2022/08/08 04:53:53;;;;;;;10.20;4.50;;;;;;;;;;5072567;28;20905;-48
2022/08/08 04:56:19;;;;;;;8.20;5.60;;;;;;;;;;5072332;28;20426;-48
2022/08/08 04:58:45;;;;;;;5.87;5.10;;;;;;;;;;5072239;28;20912;-48
2022/08/08 05:01:11;;;;;;;10.13;5.73;;;;;;;;;;5072002;28;20406;-49
2022/08/08 05:03:37;;;;;;;10.73;6.13;;;;;;;;;;5072598;28;20969;-48
2022/08/08 05:06:03;;;;;;;7.77;5.13;;;;;;;;;;5072278;28;20494;-48
2022/08/08 05:08:29;;;;;;;8.03;5.30;;;;;;;;;;5072411;28;20449;-48
2022/08/08 05:10:55;;;;;;;7.63;5.40;;;;;;;;;;5071479;28;20452;-48
2022/08/08 05:13:21;;;;;;;6.13;5.53;;;;;;;;;;5072144;28;20396;-49
2022/08/08 05:15:47;;;;;;;6.13;5.03;;;;;;;;;;5072132;28;20888;-49
2022/08/08 05:18:13;;;;;;;7.37;6.10;;;;;;;;;;5055156;28;20436;-48
2022/08/08 05:20:39;;;;;;;10.20;6.40;;;;;;;;;;5071418;28;20381;-48
2022/08/08 05:23:05;;;;;;;8.93;6.50;;;;;;;;;;5072117;28;20411;-48
2022/08/08 05:25:31;;;;;;;7.50;5.77;;;;;;;;;;5072076;28;20491;-48
2022/08/08 05:27:57;;;;;;;12.83;5.93;;;;;;;;;;5071841;28;20501;-48
2022/08/08 05:30:23;;;;;;;14.03;6.70;;;;;;;;;;5071213;28;20474;-48
2022/08/08 05:32:49;;;;;;;10.80;6.33;;;;;;;;;;5072366;28;20495;-48
2022/08/08 05:35:17;;;;;;;8.33;6.20;;;;;;;;;;5071908;28;20764;-48
2022/08/08 05:37:47;;;;;;;10.53;7.43;;;;;;;;;;5071930;28;21011;-48
2022/08/08 05:40:13;;;;;;;10.30;7.17;;;;;;;;;;5071043;28;20375;-48
2022/08/08 05:42:43;;;;;;;8.20;6.23;;;;;;;;;;5071652;28;20419;-49
2022/08/08 05:45:11;;;;;;;15.77;7.00;;;;;;;;;;5071846;28;20799;-49
2022/08/08 05:47:38;;;;;;;9.20;7.10;;;;;;;;;;5063018;28;20960;-48
2022/08/08 05:50:05;;;;;;;17.60;7.43;;;;;;;;;;5068782;28;20447;-47
2022/08/08 05:52:32;;;;;;;12.50;6.87;;;;;;;;;;5071842;28;20443;-48
2022/08/08 05:54:58;;;;;;;11.80;6.53;;;;;;;;;;5071657;28;20494;-49
2022/08/08 05:57:27;;;;;;;10.33;6.90;;;;;;;;;;5060317;28;20564;-48
2022/08/08 05:59:55;;;;;;;10.00;6.67;;;;;;;;;;5050875;28;20411;-48
2022/08/08 06:05:11;;;;;;;9.47;7.17;;;;;;;;;;5051667;28;20378;-47
2022/08/08 06:07:40;;;;;;;11.37;6.60;;;;;;;;;;5051440;28;20432;-48
2022/08/08 06:10:08;;;;;;;7.60;6.23;;;;;;;;;;5050803;28;20392;-48
2022/08/08 06:12:35;;;;;;;11.40;7.60;;;;;;;;;;5051617;28;20401;-48
2022/08/08 06:15:02;;;;;;;10.37;8.27;;;;;;;;;;5051534;28;20406;-48
2022/08/08 06:17:28;;;;;;;13.90;7.20;;;;;;;;;;5051014;28;20448;-48
2022/08/08 06:19:54;;;;;;;14.60;7.20;;;;;;;;;;5050647;28;20443;-48
2022/08/08 06:22:20;;;;;;;8.27;6.47;;;;;;;;;;5051401;28;20397;-48
2022/08/08 06:24:46;;;;;;;8.30;6.27;;;;;;;;;;5051368;28;20432;-49
2022/08/08 06:27:13;;;;;;;11.00;6.70;;;;;;;;;;5051324;28;20421;-48
2022/08/08 06:29:44;;;;;;;13.03;7.67;;;;;;;;;;5050904;28;21011;-48
2022/08/08 06:32:14;;;;;;;11.80;6.77;;;;;;;;;;5051353;28;20413;-47
2022/08/08 06:34:42;;;;;;;10.03;7.23;;;;;;;;;;5051257;28;20401;-48
2022/08/08 06:37:12;;;;;;;8.87;7.00;;;;;;;;;;5051185;28;20896;-48
2022/08/08 06:39:42;;;;;;;9.83;7.13;;;;;;;;;;5051029;28;20391;-48
2022/08/08 06:42:11;;;;;;;9.20;6.37;;;;;;;;;;5051346;28;20403;-49
2022/08/08 06:44:40;;;;;;;8.83;6.17;;;;;;;;;;5051216;28;20913;-48
2022/08/08 06:47:05;;;;;;;6.63;5.83;;;;;;;;;;5051087;28;20433;-48
2022/08/08 06:49:32;;;;;;;7.83;6.60;;;;;;;;;;5056107;28;20588;-48
2022/08/08 06:51:58;;;;;;;7.70;6.90;;;;;;;;;;5070771;28;20846;-48
2022/08/08 06:54:24;;;;;;;7.77;6.70;;;;;;;;;;5071567;28;20391;-48
2022/08/08 06:56:51;;;;;;;8.10;6.27;;;;;;;;;;5074715;28;20414;-48
2022/08/08 06:59:17;;;;;;;13.97;8.80;;;;;;;;;;5074702;28;20409;-48
2022/08/08 07:01:47;;;;;;;9.50;7.73;;;;;;;;;;5073977;28;20464;-48
2022/08/08 07:04:25;;;;;;;8.63;7.50;;;;;;;;;;5074621;28;20381;-48
2022/08/08 07:06:55;;;;;;;8.10;7.00;;;;;;;;;;5074782;28;20434;-48
2022/08/08 07:09:25;;;;;;;9.27;8.23;;;;;;;;;;5074351;28;20505;-48
2022/08/08 07:11:51;;;;;;;8.93;6.87;;;;;;;;;;5073949;28;20511;-48
2022/08/08 07:14:18;;;;;;;8.13;7.30;;;;;;;;;;5074354;28;20422;-47
2022/08/08 07:16:50;;;;;;;7.93;6.63;;;;;;;;;;5074410;28;20458;-48
2022/08/08 07:19:20;;;;;;;14.20;9.30;;;;;;;;;;5066809;28;20799;-49
2022/08/08 07:21:54;;;;;;;9.47;8.20;;;;;;;;;;5064682;28;20492;-48
2022/08/08 07:24:24;;;;;;;9.73;8.57;;;;;;;;;;5074314;28;20408;-48
2022/08/08 07:26:52;;;;;;;9.30;7.60;;;;;;;;;;5074137;28;20398;-48
2022/08/08 07:29:19;;;;;;;10.27;9.00;;;;;;;;;;5074265;28;20537;-48
2022/08/08 07:31:45;;;;;;;8.90;8.00;;;;;;;;;;5073515;28;20396;-48
2022/08/08 07:34:11;;;;;;;9.47;8.17;;;;;;;;;;5074286;28;20450;-48
2022/08/08 07:36:38;;;;;;;8.63;7.77;;;;;;;;;;5074044;28;20416;-48
2022/08/08 07:39:06;;;;;;;8.70;7.80;;;;;;;;;;5073916;28;20372;-48
2022/08/08 07:41:32;;;;;;;11.33;7.60;;;;;;;;;;5073326;28;20423;-48
2022/08/08 07:43:59;;;;;;;7.83;7.13;;;;;;;;;;5074252;28;20412;-49
2022/08/08 07:46:25;;;;;;;9.97;7.47;;;;;;;;;;5073831;28;20790;-49
2022/08/08 07:48:51;;;;;;;10.33;6.90;;;;;;;;;;5071959;28;20432;-49
2022/08/08 07:51:17;;;;;;;6.50;5.80;;;;;;;;;;5070713;28;20740;-48
2022/08/08 07:53:45;;;;;;;11.93;6.47;;;;;;;;;;5064845;28;20897;-48
2022/08/08 07:56:12;;;;;;;7.53;5.87;;;;;;;;;;5053855;28;20547;-48
2022/08/08 07:58:39;;;;;;;8.80;6.00;;;;;;;;;;5053517;28;20428;-48
2022/08/08 08:01:09;;;;;;;6.90;5.93;;;;;;;;;;5053719;28;20398;-48
2022/08/08 08:03:36;;;;;;;5.13;4.73;;;;;;;;;;5053157;28;20409;-49
2022/08/08 08:06:04;;;;;;;6.40;4.53;;;;;;;;;;5051772;28;20423;-49
2022/08/08 08:08:41;;;;;;;10.33;5.10;;;;;;;;;;5050907;28;20475;-49
2022/08/08 08:11:14;;;;;;;9.53;5.73;;;;;;;;;;5051787;28;20398;-48
2022/08/08 08:13:43;;;;;;;7.13;4.97;;;;;;;;;;5052223;28;20390;-49
2022/08/08 08:16:10;;;;;;;7.53;5.37;;;;;;;;;;5053264;28;20505;-49
2022/08/08 08:18:59;;;;;;;8.30;5.27;;;;;;;;;;5052535;28;20821;-49
2022/08/08 08:21:28;;;;;;;7.03;5.00;;;;;;;;;;5051286;28;20924;-49
2022/08/08 08:23:54;;;;;;;5.93;4.93;;;;;;;;;;5073000;28;20783;-49
2022/08/08 08:26:20;;;;;;;4.97;4.27;;;;;;;;;;5073035;28;20435;-50
2022/08/08 08:28:47;;;;;;;5.10;4.50;;;;;;;;;;5072924;28;20444;-49
2022/08/08 08:31:13;;;;;;;10.40;4.83;;;;;;;;;;5072294;28;20474;-49
2022/08/08 08:33:39;;;;;;;6.97;4.17;;;;;;;;;;5072953;28;20389;-49
2022/08/08 08:36:06;;;;;;;4.43;4.03;;;;;;;;;;5072735;28;20503;-49
2022/08/08 08:38:32;;;;;;;6.23;5.27;;;;;;;;;;5072528;28;20401;-49
2022/08/08 08:40:59;;;;;;;5.73;4.10;;;;;;;;;;5072139;28;20407;-49
2022/08/08 08:43:25;;;;;;;6.63;5.93;;;;;;;;;;5072818;28;20776;-49
2022/08/08 08:45:53;;;;;;;4.57;4.17;;;;;;;;;;5072586;28;20397;-49
2022/08/08 08:48:19;;;;;;;7.83;4.87;;;;;;;;;;5071302;28;20470;-49
2022/08/08 08:50:49;;;;;;;9.53;5.87;;;;;;;;;;5071864;28;20420;-50
2022/08/08 08:53:15;;;;;;;6.73;4.90;;;;;;;;;;5072675;28;20426;-49
2022/08/08 08:55:42;;;;;;;4.40;4.00;;;;;;;;;;5072486;28;20833;-49
2022/08/08 08:58:09;;;;;;;4.43;4.03;;;;;;;;;;5072455;28;20442;-49
2022/08/08 09:00:36;;;;;;;5.33;4.83;;;;;;;;;;5058482;28;20874;-49
2022/08/08 09:03:05;;;;;;;6.40;5.30;;;;;;;;;;5052786;28;20834;-49
2022/08/08 09:05:33;;;;;;;6.20;5.03;;;;;;;;;;5052753;28;20447;-49
2022/08/08 09:08:02;;;;;;;5.10;3.63;;;;;;;;;;5072278;28;20404;-49
2022/08/08 09:10:30;;;;;;;5.13;3.57;;;;;;;;;;5071527;28;20424;-49
2022/08/08 09:12:56;;;;;;;5.40;4.70;;;;;;;;;;5072167;28;20397;-49
2022/08/08 09:15:22;;;;;;;5.17;4.70;;;;;;;;;;5072172;28;20396;-49
2022/08/08 09:17:48;;;;;;;5.03;4.33;;;;;;;;;;5071511;28;20420;-49
2022/08/08 09:20:15;;;;;;;4.40;4.00;;;;;;;;;;5071387;28;20396;-49
2022/08/08 09:22:41;;;;;;;6.90;4.23;;;;;;;;;;5072099;28;20397;-49
2022/08/08 09:25:07;;;;;;;4.77;4.37;;;;;;;;;;5072113;28;20417;-49
2022/08/08 09:27:34;;;;;;;4.67;3.97;;;;;;;;;;5071925;28;20416;-49
2022/08/08 09:30:05;;;;;;;3.70;3.40;;;;;;;;;;5069344;28;20467;-49
2022/08/08 09:32:41;;;;;;;3.27;2.97;;;;;;;;;;5059179;28;20424;-49
2022/08/08 09:35:11;;;;;;;3.47;3.27;;;;;;;;;;5072295;28;20388;-49
2022/08/08 09:37:43;;;;;;;4.03;3.73;;;;;;;;;;5069185;28;20423;-49
2022/08/08 09:40:10;;;;;;;5.33;3.80;;;;;;;;;;5070887;28;20791;-48
2022/08/08 09:42:37;;;;;;;4.90;3.13;;;;;;;;;;5071742;28;20396;-48
2022/08/08 09:45:07;;;;;;;5.10;3.17;;;;;;;;;;5071863;28;20825;-48
2022/08/08 09:47:35;;;;;;;3.40;3.10;;;;;;;;;;5071571;28;20486;-48
2022/08/08 09:50:04;;;;;;;3.10;2.80;;;;;;;;;;5070810;28;20915;-48
2022/08/08 09:52:31;;;;;;;4.90;3.40;;;;;;;;;;5071477;28;20408;-48
2022/08/08 09:54:57;;;;;;;3.83;3.53;;;;;;;;;;5071626;28;20399;-49
2022/08/08 09:57:31;;;;;;;5.07;2.87;;;;;;;;;;5071369;28;20451;-50
2022/08/08 09:59:59;;;;;;;4.90;3.20;;;;;;;;;;5070932;28;20488;-48
2022/08/08 10:02:29;;;;;;;10.90;3.60;;;;;;;;;;5055122;28;20433;-48
2022/08/08 10:05:02;;;;;;;4.93;4.53;;;;;;;;;;5051416;28;20466;-48
2022/08/08 10:07:28;;;;;;;4.17;3.77;;;;;;;;;;5051430;28;20421;-48
2022/08/08 10:09:53;;;;;;;3.93;3.53;;;;;;;;;;5050831;28;20828;-48
2022/08/08 10:12:30;;;;;;;3.50;3.20;;;;;;;;;;5051332;28;20440;-48
2022/08/08 10:14:59;;;;;;;5.03;3.17;;;;;;;;;;5051417;28;20404;-48
2022/08/08 10:17:25;;;;;;;3.27;2.90;;;;;;;;;;5050777;28;20425;-49
2022/08/08 10:19:56;;;;;;;3.60;3.23;;;;;;;;;;5061748;28;20497;-49
2022/08/08 10:22:23;;;;;;;5.40;3.60;;;;;;;;;;5071431;28;20408;-48
2022/08/08 10:24:52;;;;;;;3.50;3.03;;;;;;;;;;5071416;28;20927;-48
2022/08/08 10:27:19;;;;;;;3.43;3.13;;;;;;;;;;5071421;28;20436;-48
2022/08/08 10:29:53;;;;;;;3.20;2.90;;;;;;;;;;5071693;28;20481;-48
2022/08/08 10:32:34;;;;;;;3.70;3.10;;;;;;;;;;5065211;28;20425;-48
2022/08/08 10:35:00;;;;;;;3.20;3.00;;;;;;;;;;5055293;28;20765;-48
2022/08/08 10:37:30;;;;;;;3.07;2.73;;;;;;;;;;5055210;28;20421;-49
2022/08/08 10:39:57;;;;;;;2.97;2.47;;;;;;;;;;5054403;28;20523;-49
2022/08/08 10:42:24;;;;;;;3.63;2.40;;;;;;;;;;5055082;28;20405;-49
2022/08/08 10:44:58;;;;;;;2.90;2.60;;;;;;;;;;5055102;28;20483;-48
2022/08/08 10:47:24;;;;;;;2.60;2.40;;;;;;;;;;5072358;28;20460;-48
2022/08/08 10:49:51;;;;;;;4.27;2.40;;;;;;;;;;5073926;28;20499;-49
2022/08/08 10:52:27;;;;;;;2.97;2.60;;;;;;;;;;5075091;28;20860;-48
2022/08/08 10:54:54;;;;;;;2.90;2.70;;;;;;;;;;5074808;28;20422;-48
2022/08/08 10:57:20;;;;;;;3.30;3.10;;;;;;;;;;5074443;28;20921;-48
2022/08/08 10:59:51;;;;;;;2.40;2.20;;;;;;;;;;5074169;28;20519;-48
2022/08/08 11:02:33;;;;;;;3.13;2.83;;;;;;;;;;5069549;28;20428;-48
2022/08/08 11:05:00;;;;;;;3.20;2.53;;;;;;;;;;5065181;28;20452;-49
2022/08/08 11:07:26;;;;;;;4.03;2.60;;;;;;;;;;5074513;28;20446;-48
2022/08/08 11:09:52;;;;;;;2.90;2.70;;;;;;;;;;5074036;28;20881;-48
2022/08/08 11:12:18;;;;;;;2.80;2.60;;;;;;;;;;5074591;28;20170;-48
2022/08/08 11:14:48;;;;;;;3.27;2.43;;;;;;;;;;5074557;28;20399;-48
2022/08/08 11:17:14;;;;;;;3.10;2.80;;;;;;;;;;5074436;28;20421;-48
2022/08/08 11:19:41;;;;;;;3.23;2.40;;;;;;;;;;5074458;28;20404;-48
2022/08/08 11:22:08;;;;;;;2.70;2.50;;;;;;;;;;5074248;28;20408;-48
2022/08/08 11:24:35;;;;;;;2.80;2.60;;;;;;;;;;5074381;28;20892;-49
2022/08/08 11:27:02;;;;;;;2.50;2.30;;;;;;;;;;5074293;28;20490;-49
2022/08/08 11:29:29;;;;;;;3.57;2.87;;;;;;;;;;5074404;28;20506;-49
2022/08/08 11:31:55;;;;;;;2.23;2.13;;;;;;;;;;5073629;28;20397;-49
2022/08/08 11:34:23;;;;;;;3.03;1.83;;;;;;;;;;5055035;28;20459;-48
2022/08/08 11:36:49;;;;;;;2.40;2.30;;;;;;;;;;5073728;28;20506;-48
2022/08/08 11:39:16;;;;;;;2.53;2.30;;;;;;;;;;5074107;28;20416;-48
2022/08/08 11:41:43;;;;;;;2.20;2.00;;;;;;;;;;5072953;28;20408;-48
2022/08/08 11:44:12;;;;;;;2.80;2.17;;;;;;;;;;5073831;28;20484;-48
2022/08/08 11:46:38;;;;;;;2.00;1.90;;;;;;;;;;5073564;28;20429;-49
2022/08/08 11:49:07;;;;;;;2.27;2.10;;;;;;;;;;5073603;28;20530;-49
2022/08/08 11:51:34;;;;;;;3.53;2.63;;;;;;;;;;5073009;28;20397;-48
2022/08/08 11:54:00;;;;;;;2.73;2.50;;;;;;;;;;5073645;28;20871;-49
2022/08/08 11:56:31;;;;;;;2.80;2.60;;;;;;;;;;5073471;28;20474;-49
2022/08/08 11:59:04;;;;;;;2.20;2.10;;;;;;;;;;5073652;28;20408;-49
2022/08/08 12:01:34;;;;;;;2.73;2.03;;;;;;;;;;5073024;28;20916;-48
2022/08/08 12:04:02;;;;;;;2.43;2.33;;;;;;;;;;5063123;28;20799;-48
2022/08/08 12:06:28;;;;;;;2.30;2.10;;;;;;;;;;5053721;28;20425;-49
2022/08/08 12:09:04;;;;;;;7.20;2.30;;;;;;;;;;5053268;28;20510;-49
2022/08/08 12:11:36;;;;;;;3.10;2.50;;;;;;;;;;5052773;28;20202;-48
2022/08/08 12:14:03;;;;;;;3.70;2.70;;;;;;;;;;5053433;28;20405;-48
2022/08/08 12:16:29;;;;;;;2.63;2.23;;;;;;;;;;5053256;28;20428;-48
2022/08/08 12:18:56;;;;;;;3.27;2.40;;;;;;;;;;5053448;28;20407;-48
2022/08/08 12:21:26;;;;;;;2.27;2.00;;;;;;;;;;5052570;28;20405;-48
2022/08/08 12:24:03;;;;;;;2.10;2.00;;;;;;;;;;5052951;28;20925;-49
2022/08/08 12:26:55;;;;;;;2.60;1.77;;;;;;;;;;5053160;28;20497;-48
2022/08/08 12:29:34;;;;;;;2.17;1.90;;;;;;;;;;5051006;28;20469;-48
2022/08/08 12:32:01;;;;;;;4.80;2.10;;;;;;;;;;5052568;28;20401;-48
2022/08/08 12:34:43;;;;;;;2.27;2.07;;;;;;;;;;5053576;28;20425;-49
2022/08/08 12:37:25;;;;;;;3.53;2.20;;;;;;;;;;5052851;28;21016;-48
2022/08/08 12:39:51;;;;;;;2.37;2.27;;;;;;;;;;5052180;28;20401;-48
2022/08/08 12:42:17;;;;;;;4.60;2.50;;;;;;;;;;5052753;28;20415;-49
2022/08/08 12:44:44;;;;;;;3.37;2.67;;;;;;;;;;5052831;28;20393;-48
2022/08/08 12:47:10;;;;;;;3.00;2.67;;;;;;;;;;5052712;28;20421;-49
2022/08/08 12:49:37;;;;;;;2.60;2.40;;;;;;;;;;5051686;28;20960;-49
2022/08/08 12:52:04;;;;;;;3.53;2.30;;;;;;;;;;5052035;28;20438;-49
2022/08/08 12:54:31;;;;;;;3.63;2.20;;;;;;;;;;5052637;28;20401;-48
2022/08/08 12:56:57;;;;;;;2.40;2.20;;;;;;;;;;5052356;28;20473;-49
2022/08/08 12:59:27;;;;;;;3.70;2.10;;;;;;;;;;5052455;28;20405;-49
2022/08/08 13:01:53;;;;;;;2.60;2.40;;;;;;;;;;5051807;28;20405;-49
2022/08/08 13:04:24;;;;;;;2.33;2.20;;;;;;;;;;5052295;28;20933;-49
2022/08/08 13:07:04;;;;;;;2.70;2.50;;;;;;;;;;5052380;28;20428;-49
2022/08/08 13:09:30;;;;;;;2.50;2.30;;;;;;;;;;5052291;28;20547;-49
2022/08/08 13:11:56;;;;;;;2.23;2.13;;;;;;;;;;5051837;28;20413;-48
2022/08/08 13:14:35;;;;;;;2.53;2.33;;;;;;;;;;5052312;28;20166;-48
2022/08/08 13:17:01;;;;;;;2.10;1.90;;;;;;;;;;5052259;28;20486;-48
2022/08/08 13:19:27;;;;;;;2.80;2.10;;;;;;;;;;5052321;28;20397;-49
2022/08/08 13:21:53;;;;;;;3.53;3.33;;;;;;;;;;5051692;28;20397;-48
2022/08/08 13:24:19;;;;;;;2.20;2.10;;;;;;;;;;5052209;28;20760;-49
2022/08/08 13:26:45;;;;;;;2.70;2.20;;;;;;;;;;5052101;28;20198;-49
2022/08/08 13:29:12;;;;;;;2.40;2.00;;;;;;;;;;5051797;28;20530;-50
2022/08/08 13:31:50;;;;;;;2.93;2.60;;;;;;;;;;5051726;28;20174;-49
2022/08/08 13:34:20;;;;;;;5.70;1.97;;;;;;;;;;5051997;28;20393;-49
2022/08/08 13:36:46;;;;;;;3.00;2.40;;;;;;;;;;5054460;28;20443;-48
2022/08/08 13:39:15;;;;;;;3.67;2.33;;;;;;;;;;5071833;28;20804;-48
2022/08/08 13:41:42;;;;;;;2.50;2.30;;;;;;;;;;5071183;28;20407;-48
2022/08/08 13:44:08;;;;;;;3.30;2.43;;;;;;;;;;5071894;28;20903;-48
2022/08/08 13:46:34;;;;;;;2.10;2.00;;;;;;;;;;5065246;28;20445;-48
2022/08/08 13:49:00;;;;;;;2.60;2.07;;;;;;;;;;5062318;28;20449;-48
2022/08/08 13:51:26;;;;;;;2.23;2.13;;;;;;;;;;5070991;28;20450;-48
2022/08/08 13:53:56;;;;;;;2.57;2.37;;;;;;;;;;5071659;28;20392;-49
2022/08/08 13:56:35;;;;;;;2.40;2.20;;;;;;;;;;5069946;28;20827;-48
2022/08/08 13:59:01;;;;;;;2.47;2.33;;;;;;;;;;5072153;28;20407;-52
2022/08/08 14:01:31;;;;;;;3.23;2.03;;;;;;;;;;5071006;28;20450;-51
2022/08/08 14:03:59;;;;;;;3.30;2.00;;;;;;;;;;5070530;28;20482;-51
2022/08/08 14:06:26;;;;;;;2.17;1.97;;;;;;;;;;5055474;28;20429;-51
2022/08/08 14:08:52;;;;;;;2.73;2.47;;;;;;;;;;5055268;28;20975;-50
2022/08/08 14:11:20;;;;;;;3.13;2.27;;;;;;;;;;5054362;28;20505;-51
2022/08/08 14:13:46;;;;;;;2.30;2.10;;;;;;;;;;5055756;28;20408;-51
2022/08/08 14:16:13;;;;;;;2.83;2.40;;;;;;;;;;5053931;28;20492;-51
2022/08/08 14:18:51;;;;;;;2.47;2.30;;;;;;;;;;5055384;28;20474;-52
2022/08/08 14:21:17;;;;;;;2.57;2.20;;;;;;;;;;5055427;28;20896;-52
2022/08/08 14:23:44;;;;;;;2.63;2.43;;;;;;;;;;5055453;28;20483;-52
2022/08/08 14:26:20;;;;;;;2.43;2.23;;;;;;;;;;5054423;28;20425;-51
2022/08/08 14:28:56;;;;;;;2.30;2.20;;;;;;;;;;5055002;28;20487;-52
2022/08/08 14:31:22;;;;;;;2.90;2.70;;;;;;;;;;5054945;28;20408;-50
2022/08/08 14:33:53;;;;;;;4.30;2.30;;;;;;;;;;5052668;28;20401;-52
2022/08/08 14:36:30;;;;;;;4.90;2.60;;;;;;;;;;5053435;28;20813;-51
2022/08/08 14:38:57;;;;;;;2.60;2.40;;;;;;;;;;5052627;28;20416;-50
2022/08/08 14:41:23;;;;;;;2.30;2.20;;;;;;;;;;5051965;28;20492;-51
2022/08/08 14:43:58;;;;;;;2.90;2.70;;;;;;;;;;5054032;28;20827;-52
2022/08/08 14:46:28;;;;;;;3.33;2.33;;;;;;;;;;5053741;28;20506;-51
2022/08/08 14:48:56;;;;;;;2.67;2.47;;;;;;;;;;5054859;28;20468;-51
2022/08/08 14:51:22;;;;;;;4.27;2.70;;;;;;;;;;5054237;28;20845;-51
2022/08/08 14:53:48;;;;;;;2.70;2.23;;;;;;;;;;5054875;28;20440;-52
2022/08/08 14:56:14;;;;;;;2.20;2.00;;;;;;;;;;5054666;28;20427;-51
2022/08/08 14:58:40;;;;;;;2.27;2.07;;;;;;;;;;5054581;28;21116;-51
2022/08/08 15:01:06;;;;;;;3.80;2.40;;;;;;;;;;5054109;28;20407;-51
2022/08/08 15:03:32;;;;;;;2.50;2.30;;;;;;;;;;5054723;28;20405;-51